createdAt,value
2024-03-27T00:23:36.944Z,8.80
2024-03-27T00:58:24.879Z,8.70
2024-03-27T01:26:44.562Z,8.80
2024-03-27T01:55:50.600Z,8.70
2024-03-27T02:24:56.536Z,8.60
2024-03-27T02:54:03.546Z,8.00
2024-03-27T03:23:09.592Z,7.90
2024-03-27T03:57:07.931Z,7.90
2024-03-27T04:26:10.765Z,7.60
2024-03-27T04:55:20.570Z,6.90
2024-03-27T05:24:26.496Z,6.50
2024-03-27T05:53:30.098Z,6.60
2024-03-27T06:27:27.215Z,8.40
2024-03-27T06:56:34.083Z,9.70
2024-03-27T07:25:43.524Z,10.70
2024-03-27T07:54:49.567Z,11.30
2024-03-27T08:23:56.561Z,11.90
2024-03-27T08:57:50.916Z,13.20
2024-03-27T09:27:02.593Z,13.90
2024-03-27T09:56:06.390Z,13.50
2024-03-27T10:25:12.172Z,14.00
2024-03-27T10:54:29.511Z,13.70
2024-03-27T11:23:36.768Z,14.00
2024-03-27T11:57:37.550Z,13.90
2024-03-27T12:26:40.587Z,13.40
2024-03-27T12:55:50.568Z,12.80
2024-03-27T13:24:54.362Z,13.20
2024-03-27T13:54:03.668Z,12.10
2024-03-27T14:23:10.530Z,10.90
2024-03-27T14:57:07.545Z,11.40
2024-03-27T15:26:14.836Z,10.70
2024-03-27T15:55:17.775Z,10.30
2024-03-27T16:24:27.560Z,10.20
2024-03-27T16:53:30.736Z,9.90
2024-03-27T17:27:30.459Z,9.50
2024-03-27T17:56:34.627Z,9.30
2024-03-27T18:23:34.999Z,9.30
2024-03-27T18:57:34.008Z,9.00
2024-03-27T19:26:41.558Z,8.90
2024-03-27T19:55:47.591Z,8.70
2024-03-27T20:24:54.449Z,8.50
2024-03-27T20:54:00.645Z,8.30
2024-03-27T21:23:04.163Z,8.30
2024-03-27T21:57:04.494Z,8.20
2024-03-27T22:26:08.125Z,8.20
2024-03-27T22:55:17.540Z,8.10
2024-03-27T23:24:23.662Z,8.10
2024-03-27T23:53:27.364Z,8.10
